createdAt,value
2023-05-02T00:01:15.410Z,94041.22
2023-05-02T00:03:42.980Z,94033.53
2023-05-02T00:06:10.036Z,94039.44
2023-05-02T00:08:36.920Z,94042.75
2023-05-02T00:11:04.103Z,94046.94
2023-05-02T00:13:30.883Z,94045.03
2023-05-02T00:15:57.644Z,94044.69
2023-05-02T00:18:24.528Z,94052.97
2023-05-02T00:20:51.766Z,94049.44
2023-05-02T00:23:18.519Z,94042.13
2023-05-02T00:25:48.288Z,94046.94
2023-05-02T00:28:15.038Z,94044.25
2023-05-02T00:30:47.813Z,94048.31
2023-05-02T00:33:16.023Z,94052.19
2023-05-02T00:35:42.909Z,94051.19
2023-05-02T00:38:09.871Z,94047.44
2023-05-02T00:40:46.671Z,94053.88
2023-05-02T00:43:14.306Z,94051.59
2023-05-02T00:45:43.631Z,94052.75
2023-05-02T00:48:10.955Z,94050.75
2023-05-02T00:50:41.682Z,94046.84
2023-05-02T00:53:09.584Z,94053.63
2023-05-02T00:55:36.642Z,94033.75
2023-05-02T00:58:06.893Z,94053.97
2023-05-02T01:01:01.239Z,94051.69
2023-05-02T01:03:49.973Z,94051.31
2023-05-02T01:06:20.683Z,94052.41
2023-05-02T01:08:52.981Z,94055.09
2023-05-02T01:11:47.896Z,94049.00
2023-05-02T01:14:15.267Z,94055.38
2023-05-02T01:16:44.326Z,94051.75
2023-05-02T01:19:20.345Z,94060.28
2023-05-02T01:21:47.766Z,94053.63
2023-05-02T01:24:26.573Z,94049.81
2023-05-02T01:27:18.345Z,94057.31
2023-05-02T01:29:46.257Z,94051.19
2023-05-02T01:32:13.954Z,94055.09
2023-05-02T01:34:41.853Z,94060.13
2023-05-02T01:37:10.496Z,94061.06
2023-05-02T01:39:38.584Z,94062.28
2023-05-02T01:42:05.800Z,94055.66
2023-05-02T01:44:34.315Z,94060.69
2023-05-02T01:47:03.636Z,94055.66
2023-05-02T01:49:31.957Z,94061.13
2023-05-02T01:52:00.859Z,94054.50
2023-05-02T01:54:27.838Z,94057.53
2023-05-02T01:56:55.130Z,94058.69
2023-05-02T01:59:22.990Z,94067.16
2023-05-02T02:01:51.695Z,94048.13
2023-05-02T02:04:19.872Z,94054.78
2023-05-02T02:06:51.310Z,94055.31
2023-05-02T02:09:18.335Z,94056.66
2023-05-02T02:11:53.914Z,94055.88
2023-05-02T02:14:22.848Z,94058.03
2023-05-02T02:16:51.429Z,94045.63
2023-05-02T02:19:18.677Z,94060.75
2023-05-02T02:21:47.010Z,94057.09
2023-05-02T02:24:14.379Z,94065.81
2023-05-02T02:26:41.493Z,94060.41
2023-05-02T02:29:08.818Z,94064.16
2023-05-02T02:31:36.248Z,94061.66
2023-05-02T02:34:03.236Z,94066.97
2023-05-02T02:36:34.689Z,94066.25
2023-05-02T02:39:10.628Z,94076.84
2023-05-02T02:41:46.015Z,94080.59
2023-05-02T02:44:40.468Z,94077.72
2023-05-02T02:47:14.189Z,94080.31
2023-05-02T02:49:49.913Z,94089.09
2023-05-02T02:52:25.423Z,94091.13
2023-05-02T02:54:58.639Z,94090.91
2023-05-02T02:57:45.100Z,94090.63
2023-05-02T03:00:21.386Z,94096.03
2023-05-02T03:02:48.482Z,94095.44
2023-05-02T03:05:15.713Z,94097.19
2023-05-02T03:07:42.517Z,94090.31
2023-05-02T03:10:09.385Z,94107.63
2023-05-02T03:12:36.145Z,94097.31
2023-05-02T03:15:14.982Z,94104.81
2023-05-02T03:17:41.702Z,94103.81
2023-05-02T03:20:08.761Z,94106.25
2023-05-02T03:22:35.449Z,94103.50
2023-05-02T03:25:02.557Z,94107.56
2023-05-02T03:27:29.322Z,94106.41
2023-05-02T03:29:56.025Z,94106.78
2023-05-02T03:32:22.909Z,94116.28
2023-05-02T03:34:49.651Z,94101.28
2023-05-02T03:37:16.383Z,94113.03
2023-05-02T03:39:43.180Z,94115.56
2023-05-02T03:42:10.003Z,94105.31
2023-05-02T03:44:36.730Z,94110.81
2023-05-02T03:47:03.672Z,94115.13
2023-05-02T03:49:30.409Z,94105.78
2023-05-02T03:51:57.229Z,94113.88
2023-05-02T03:54:24.136Z,94116.84
2023-05-02T03:56:50.876Z,94118.06
2023-05-02T03:59:17.597Z,94119.22
2023-05-02T04:01:44.503Z,94116.63
2023-05-02T04:04:11.564Z,94120.47
2023-05-02T04:06:38.440Z,94125.16
2023-05-02T04:09:05.216Z,94125.44
2023-05-02T04:11:32.031Z,94131.78
2023-05-02T04:13:58.811Z,94122.69
2023-05-02T04:16:25.861Z,94121.25
2023-05-02T04:18:52.632Z,94126.97
2023-05-02T04:21:19.296Z,94133.38
2023-05-02T04:23:46.066Z,94137.78
2023-05-02T04:26:12.697Z,94140.75
2023-05-02T04:28:39.290Z,94142.91
2023-05-02T04:31:05.949Z,94144.47
2023-05-02T04:33:32.709Z,94143.34
2023-05-02T04:35:59.311Z,94153.94
2023-05-02T04:38:26.426Z,94167.84
2023-05-02T04:40:53.199Z,94158.69
2023-05-02T04:43:20.791Z,94147.84
2023-05-02T04:45:48.470Z,94158.47
2023-05-02T04:48:15.234Z,94164.16
2023-05-02T04:50:42.018Z,94161.78
2023-05-02T04:53:08.838Z,94160.94
2023-05-02T04:55:35.586Z,94172.16
2023-05-02T04:58:02.315Z,94170.28
2023-05-02T05:00:29.175Z,94164.19
2023-05-02T05:02:56.001Z,94185.28
2023-05-02T05:05:22.881Z,94189.31
2023-05-02T05:07:49.642Z,94182.53
2023-05-02T05:10:16.525Z,94190.13
2023-05-02T05:12:43.279Z,94194.09
2023-05-02T05:15:10.420Z,94194.09
2023-05-02T05:17:37.888Z,94194.66
2023-05-02T05:20:06.635Z,94198.28
2023-05-02T05:22:39.456Z,94197.50
2023-05-02T05:25:06.614Z,94200.69
2023-05-02T05:27:34.517Z,94199.25
2023-05-02T05:30:01.998Z,94204.47
2023-05-02T05:32:29.676Z,94209.22
2023-05-02T05:34:56.551Z,94210.03
2023-05-02T05:37:23.370Z,94211.59
2023-05-02T05:39:50.109Z,94197.72
2023-05-02T05:42:17.089Z,94208.91
2023-05-02T05:44:43.796Z,94206.91
2023-05-02T05:47:10.628Z,94223.94
2023-05-02T05:49:38.816Z,94215.16
2023-05-02T05:52:05.822Z,94220.72
2023-05-02T05:54:32.618Z,94223.00
2023-05-02T05:56:59.299Z,94225.06
2023-05-02T05:59:26.041Z,94221.56
2023-05-02T06:01:54.237Z,94223.31
2023-05-02T06:04:21.097Z,94227.59
2023-05-02T06:06:47.848Z,94222.66
2023-05-02T06:09:14.747Z,94230.47
2023-05-02T06:11:41.473Z,94229.25
2023-05-02T06:14:08.384Z,94239.72
2023-05-02T06:16:35.304Z,94223.72
2023-05-02T06:19:02.260Z,94230.13
2023-05-02T06:21:29.143Z,94234.53
2023-05-02T06:23:55.843Z,94241.91
2023-05-02T06:26:22.580Z,94235.28
2023-05-02T06:28:49.323Z,94239.38
2023-05-02T06:31:16.557Z,94245.16
2023-05-02T06:33:43.482Z,94243.28
2023-05-02T06:36:10.244Z,94247.25
2023-05-02T06:38:37.030Z,94249.41
2023-05-02T06:41:04.029Z,94239.72
2023-05-02T06:43:30.841Z,94241.38
2023-05-02T06:45:58.855Z,94255.03
2023-05-02T06:48:25.686Z,94257.94
2023-05-02T06:50:53.787Z,94258.22
2023-05-02T06:53:20.635Z,94253.84
2023-05-02T06:55:48.646Z,94261.09
2023-05-02T06:58:15.493Z,94254.38
2023-05-02T07:00:42.349Z,94259.09
2023-05-02T07:03:11.316Z,94259.38
2023-05-02T07:05:38.143Z,94274.69
2023-05-02T07:08:05.249Z,94261.91
2023-05-02T07:10:32.284Z,94258.56
2023-05-02T07:12:59.081Z,94268.97
2023-05-02T07:15:25.954Z,94270.34
2023-05-02T07:17:52.844Z,94277.28
2023-05-02T07:20:20.105Z,94271.28
2023-05-02T07:22:46.897Z,94273.53
2023-05-02T07:25:13.710Z,94276.75
2023-05-02T07:27:40.447Z,94281.53
2023-05-02T07:30:07.913Z,94283.13
2023-05-02T07:32:34.730Z,94284.72
2023-05-02T07:35:01.960Z,94282.75
2023-05-02T07:37:34.372Z,94269.47
2023-05-02T07:40:01.839Z,94277.06
2023-05-02T07:42:30.372Z,94280.94
2023-05-02T07:44:57.141Z,94281.72
2023-05-02T07:47:23.917Z,94284.00
2023-05-02T07:49:54.978Z,94284.66
2023-05-02T07:52:21.962Z,94282.41
2023-05-02T07:54:49.892Z,94289.59
2023-05-02T07:57:16.762Z,94291.63
2023-05-02T07:59:43.553Z,94293.66
2023-05-02T08:02:11.403Z,94302.81
2023-05-02T08:04:38.324Z,94295.59
2023-05-02T08:07:05.129Z,94299.31
2023-05-02T08:09:32.002Z,94289.25
2023-05-02T08:11:58.750Z,94303.88
2023-05-02T08:14:25.504Z,94299.09
2023-05-02T08:16:52.604Z,94296.94
2023-05-02T08:19:19.480Z,94304.47
2023-05-02T08:21:46.265Z,94299.66
2023-05-02T08:24:13.048Z,94302.22
2023-05-02T08:26:39.876Z,94304.25
2023-05-02T08:29:06.713Z,94304.00
2023-05-02T08:31:34.193Z,94303.00
2023-05-02T08:34:00.929Z,94304.53
2023-05-02T08:36:28.917Z,94314.44
2023-05-02T08:38:55.656Z,94314.44
2023-05-02T08:41:22.644Z,94317.56
2023-05-02T08:43:49.550Z,94316.88
2023-05-02T08:46:17.448Z,94316.13
2023-05-02T08:48:45.987Z,94328.16
2023-05-02T08:51:15.144Z,94318.28
2023-05-02T08:53:42.435Z,94316.31
2023-05-02T08:56:10.723Z,94325.13
2023-05-02T08:58:38.946Z,94328.16
2023-05-02T09:01:21.486Z,94325.91
2023-05-02T09:03:48.632Z,94330.72
2023-05-02T09:06:20.780Z,94336.84
2023-05-02T09:08:50.188Z,94333.13
2023-05-02T09:11:17.645Z,94342.41
2023-05-02T09:13:51.921Z,94339.34
2023-05-02T09:16:28.673Z,94345.50
2023-05-02T09:18:59.368Z,94345.94
2023-05-02T09:21:40.406Z,94351.72
2023-05-02T09:24:20.709Z,94346.09
2023-05-02T09:27:00.996Z,94357.94
2023-05-02T09:29:30.878Z,94358.78
2023-05-02T09:31:57.826Z,94358.25
2023-05-02T09:34:24.767Z,94359.66
2023-05-02T09:36:54.348Z,94365.16
2023-05-02T09:39:26.350Z,94367.63
2023-05-02T09:41:54.115Z,94358.38
2023-05-02T09:44:23.441Z,94356.00
2023-05-02T09:46:50.800Z,94362.00
2023-05-02T09:49:21.028Z,94369.81
2023-05-02T09:51:48.547Z,94365.31
2023-05-02T09:54:37.519Z,94367.78
2023-05-02T09:57:04.781Z,94372.06
2023-05-02T09:59:31.598Z,94351.56
2023-05-02T10:02:00.348Z,94367.91
2023-05-02T10:04:28.567Z,94367.91
2023-05-02T10:06:56.246Z,94371.47
2023-05-02T10:09:23.781Z,94378.94
2023-05-02T10:11:53.845Z,94372.59
2023-05-02T10:14:22.885Z,94379.41
2023-05-02T10:16:55.333Z,94379.09
2023-05-02T10:19:29.999Z,94376.22
2023-05-02T10:21:58.323Z,94377.56
2023-05-02T10:24:25.700Z,94389.59
2023-05-02T10:26:53.142Z,94378.00
2023-05-02T10:29:20.281Z,94378.44
2023-05-02T10:31:47.674Z,94382.53
2023-05-02T10:34:14.739Z,94372.91
2023-05-02T10:36:41.678Z,94386.59
2023-05-02T10:39:08.540Z,94383.28
2023-05-02T10:41:35.764Z,94392.53
2023-05-02T10:44:07.545Z,94390.66
2023-05-02T10:46:35.613Z,94386.50
2023-05-02T10:49:10.461Z,94388.78
2023-05-02T10:51:39.450Z,94389.91
2023-05-02T10:54:18.738Z,94388.16
2023-05-02T10:57:03.774Z,94400.03
2023-05-02T10:59:40.438Z,94400.53
2023-05-02T11:02:31.195Z,94405.81
2023-05-02T11:05:05.317Z,94402.63
2023-05-02T11:07:36.098Z,94406.81
2023-05-02T11:10:18.382Z,94406.81
2023-05-02T11:12:48.694Z,94411.88
2023-05-02T11:15:38.579Z,94416.81
2023-05-02T11:18:07.785Z,94412.59
2023-05-02T11:20:35.989Z,94414.19
2023-05-02T11:23:26.937Z,94423.16
2023-05-02T11:25:56.371Z,94428.09
2023-05-02T11:28:58.440Z,94432.34
2023-05-02T11:31:28.366Z,94435.63
2023-05-02T11:33:59.302Z,94441.53
2023-05-02T11:36:36.115Z,94440.09
2023-05-02T11:39:05.896Z,94435.81
2023-05-02T11:41:40.047Z,94441.97
2023-05-02T11:44:07.451Z,94437.91
2023-05-02T11:46:37.297Z,94445.44
2023-05-02T11:49:05.502Z,94450.50
2023-05-02T11:51:34.080Z,94440.88
2023-05-02T11:54:00.988Z,94438.22
2023-05-02T11:56:27.755Z,94442.41
2023-05-02T11:59:01.800Z,94441.94
2023-05-02T12:01:28.734Z,94443.03
2023-05-02T12:04:07.382Z,94457.09
2023-05-02T12:06:34.906Z,94449.56
2023-05-02T12:09:13.981Z,94457.53
2023-05-02T12:11:41.394Z,94447.03
2023-05-02T12:14:08.223Z,94458.16
2023-05-02T12:16:35.382Z,94459.63
2023-05-02T12:19:02.482Z,94464.09
2023-05-02T12:21:30.197Z,94453.72
2023-05-02T12:23:57.634Z,94457.34
2023-05-02T12:26:27.717Z,94465.38
2023-05-02T12:28:55.015Z,94462.88
2023-05-02T12:31:22.711Z,94473.38
2023-05-02T12:33:51.163Z,94472.47
2023-05-02T12:36:18.686Z,94475.06
2023-05-02T12:39:03.929Z,94475.06
2023-05-02T12:41:49.063Z,94470.06
2023-05-02T12:44:15.838Z,94478.94
2023-05-02T12:46:59.555Z,94473.13
2023-05-02T12:49:26.570Z,94483.53
2023-05-02T12:51:57.579Z,94474.91
2023-05-02T12:54:26.246Z,94481.75
2023-05-02T12:56:53.130Z,94479.97
2023-05-02T12:59:32.606Z,94469.56
2023-05-02T13:02:00.041Z,94475.50
2023-05-02T13:04:41.641Z,94467.69
2023-05-02T13:07:08.556Z,94467.78
2023-05-02T13:09:35.349Z,94469.22
2023-05-02T13:12:03.947Z,94467.81
2023-05-02T13:14:30.930Z,94471.44
2023-05-02T13:16:57.962Z,94467.00
2023-05-02T13:19:24.897Z,94470.28
2023-05-02T13:21:51.692Z,94475.94
2023-05-02T13:24:20.235Z,94472.75
2023-05-02T13:26:47.048Z,94469.13
2023-05-02T13:29:13.884Z,94467.00
2023-05-02T13:31:40.763Z,94465.06
2023-05-02T13:34:09.528Z,94461.25
2023-05-02T13:36:40.859Z,94454.47
2023-05-02T13:39:07.719Z,94456.69
2023-05-02T13:41:34.553Z,94465.19
2023-05-02T13:44:01.294Z,94455.69
2023-05-02T13:46:28.250Z,94451.25
2023-05-02T13:48:55.031Z,94461.03
2023-05-02T13:51:21.988Z,94466.78
2023-05-02T13:53:48.765Z,94454.31
2023-05-02T13:56:16.125Z,94457.50
2023-05-02T13:58:42.879Z,94457.81
2023-05-02T14:01:09.685Z,94455.22
2023-05-02T14:03:36.644Z,94457.16
2023-05-02T14:06:03.752Z,94456.22
2023-05-02T14:08:30.572Z,94467.31
2023-05-02T14:10:57.613Z,94458.03
2023-05-02T14:13:24.906Z,94458.03
2023-05-02T14:15:52.069Z,94458.59
2023-05-02T14:18:18.972Z,94445.09
2023-05-02T14:20:45.815Z,94459.13
2023-05-02T14:23:12.936Z,94448.19
2023-05-02T14:25:39.816Z,94458.22
2023-05-02T14:28:06.655Z,94454.22
2023-05-02T14:30:33.405Z,94450.00
2023-05-02T14:33:00.309Z,94457.16
2023-05-02T14:35:27.430Z,94449.44
2023-05-02T14:37:54.205Z,94458.84
2023-05-02T14:40:21.150Z,94457.84
2023-05-02T14:42:48.533Z,94454.88
2023-05-02T14:45:15.247Z,94457.22
2023-05-02T14:47:42.122Z,94457.88
2023-05-02T14:50:09.317Z,94460.13
2023-05-02T14:52:36.097Z,94461.63
2023-05-02T14:55:03.017Z,94464.50
2023-05-02T14:57:30.016Z,94450.66
2023-05-02T14:59:57.199Z,94459.53
2023-05-02T15:02:24.200Z,94464.22
2023-05-02T15:04:51.299Z,94458.09
2023-05-02T15:07:18.620Z,94454.75
2023-05-02T15:09:45.759Z,94448.25
2023-05-02T15:12:12.584Z,94464.69
2023-05-02T15:14:39.336Z,94473.16
2023-05-02T15:17:06.168Z,94469.53
2023-05-02T15:19:34.451Z,94463.69
2023-05-02T15:22:01.872Z,94464.91
2023-05-02T15:24:28.848Z,94454.94
2023-05-02T15:26:55.957Z,94464.22
2023-05-02T15:29:22.819Z,94464.47
2023-05-02T15:31:49.707Z,94471.28
2023-05-02T15:34:16.660Z,94472.88
2023-05-02T15:36:43.529Z,94473.88
2023-05-02T15:39:10.337Z,94475.69
2023-05-02T15:41:37.187Z,94475.69
2023-05-02T15:44:04.087Z,94472.06
2023-05-02T15:46:30.964Z,94476.22
2023-05-02T15:48:57.755Z,94469.44
2023-05-02T15:51:24.501Z,94470.00
2023-05-02T15:53:52.541Z,94473.91
2023-05-02T15:56:21.539Z,94471.88
2023-05-02T15:58:48.659Z,94469.50
2023-05-02T16:01:15.508Z,94466.84
2023-05-02T16:03:42.500Z,94469.47
2023-05-02T16:06:09.555Z,94480.09
2023-05-02T16:08:37.116Z,94478.19
2023-05-02T16:11:04.036Z,94481.38
2023-05-02T16:13:30.808Z,94476.38
2023-05-02T16:15:57.934Z,94481.59
2023-05-02T16:18:28.479Z,94479.66
2023-05-02T16:20:57.265Z,94480.78
2023-05-02T16:23:26.098Z,94482.16
2023-05-02T16:26:00.098Z,94480.00
2023-05-02T16:28:26.852Z,94475.59
2023-05-02T16:30:53.900Z,94486.88
2023-05-02T16:33:21.780Z,94482.53
2023-05-02T16:35:48.873Z,94472.59
2023-05-02T16:38:15.963Z,94486.34
2023-05-02T16:40:42.834Z,94492.72
2023-05-02T16:43:09.849Z,94482.38
2023-05-02T16:45:36.590Z,94495.91
2023-05-02T16:48:04.670Z,94488.31
2023-05-02T16:50:31.990Z,94500.69
2023-05-02T16:52:58.775Z,94492.41
2023-05-02T16:55:25.514Z,94501.94
2023-05-02T16:57:52.337Z,94500.78
2023-05-02T17:00:19.519Z,94504.38
2023-05-02T17:02:46.942Z,94504.47
2023-05-02T17:05:13.971Z,94506.41
2023-05-02T17:07:40.826Z,94504.09
2023-05-02T17:10:08.334Z,94512.91
2023-05-02T17:12:35.170Z,94502.88
2023-05-02T17:15:03.612Z,94508.53
2023-05-02T17:17:31.120Z,94512.75
2023-05-02T17:19:57.982Z,94512.00
2023-05-02T17:22:25.013Z,94511.94
2023-05-02T17:24:54.248Z,94519.22
2023-05-02T17:27:21.011Z,94524.84
2023-05-02T17:29:47.752Z,94531.44
2023-05-02T17:32:15.915Z,94527.88
2023-05-02T17:34:46.044Z,94529.25
2023-05-02T17:37:12.914Z,94538.47
2023-05-02T17:39:39.711Z,94521.34
2023-05-02T17:42:07.128Z,94536.94
2023-05-02T17:44:36.669Z,94532.97
2023-05-02T17:47:04.574Z,94535.69
2023-05-02T17:49:31.324Z,94522.00
2023-05-02T17:51:58.157Z,94534.00
2023-05-02T17:54:24.959Z,94544.41
2023-05-02T17:56:52.353Z,94547.59
2023-05-02T17:59:19.552Z,94543.94
2023-05-02T18:01:46.363Z,94551.38
2023-05-02T18:04:15.018Z,94551.97
2023-05-02T18:06:41.810Z,94552.31
2023-05-02T18:09:08.925Z,94560.56
2023-05-02T18:11:35.759Z,94550.88
2023-05-02T18:14:06.336Z,94561.69
2023-05-02T18:16:34.549Z,94554.81
2023-05-02T18:19:01.611Z,94560.88
2023-05-02T18:21:28.448Z,94557.50
2023-05-02T18:23:56.701Z,94550.59
2023-05-02T18:26:23.523Z,94559.50
2023-05-02T18:28:53.395Z,94557.31
2023-05-02T18:31:20.971Z,94561.69
2023-05-02T18:33:47.946Z,94569.97
2023-05-02T18:36:19.439Z,94571.78
2023-05-02T18:38:47.386Z,94572.59
2023-05-02T18:41:14.244Z,94573.25
2023-05-02T18:43:41.231Z,94576.22
2023-05-02T18:46:08.394Z,94585.19
2023-05-02T18:48:36.400Z,94591.56
2023-05-02T18:51:04.032Z,94592.78
2023-05-02T18:53:31.302Z,94596.97
2023-05-02T18:55:58.568Z,94598.19
2023-05-02T18:58:25.453Z,94594.66
2023-05-02T19:00:52.289Z,94608.22
2023-05-02T19:03:19.275Z,94612.84
2023-05-02T19:05:46.391Z,94601.06
2023-05-02T19:08:13.316Z,94614.59
2023-05-02T19:10:40.064Z,94619.03
2023-05-02T19:13:06.912Z,94624.59
2023-05-02T19:15:34.351Z,94620.19
2023-05-02T19:18:01.242Z,94620.38
2023-05-02T19:20:30.403Z,94623.78
2023-05-02T19:23:17.607Z,94618.38
2023-05-02T19:25:46.948Z,94630.97
2023-05-02T19:28:15.821Z,94635.16
2023-05-02T19:30:43.882Z,94638.00
2023-05-02T19:33:10.839Z,94631.41
2023-05-02T19:35:37.730Z,94644.16
2023-05-02T19:38:04.525Z,94638.94
2023-05-02T19:40:31.629Z,94637.94
2023-05-02T19:42:58.598Z,94649.13
2023-05-02T19:45:25.761Z,94640.75
2023-05-02T19:47:52.779Z,94646.16
2023-05-02T19:50:19.640Z,94647.34
2023-05-02T19:52:46.609Z,94654.53
2023-05-02T19:55:13.914Z,94659.94
2023-05-02T19:57:41.507Z,94656.72
2023-05-02T20:00:09.125Z,94662.56
2023-05-02T20:02:35.973Z,94653.38
2023-05-02T20:05:02.921Z,94664.97
2023-05-02T20:07:29.902Z,94666.16
2023-05-02T20:09:56.622Z,94667.75
2023-05-02T20:12:23.733Z,94671.34
2023-05-02T20:14:50.837Z,94669.38
2023-05-02T20:17:18.005Z,94666.97
2023-05-02T20:19:45.909Z,94668.56
2023-05-02T20:22:12.581Z,94666.59
2023-05-02T20:24:39.682Z,94668.59
2023-05-02T20:27:06.656Z,94664.78
2023-05-02T20:29:33.281Z,94673.41
2023-05-02T20:32:00.074Z,94678.19
2023-05-02T20:34:27.048Z,94677.56
2023-05-02T20:36:54.317Z,94684.94
2023-05-02T20:39:21.950Z,94674.56
2023-05-02T20:41:51.685Z,94676.97
2023-05-02T20:44:20.454Z,94671.38
2023-05-02T20:46:47.363Z,94673.78
2023-05-02T20:49:14.237Z,94665.41
2023-05-02T20:51:40.797Z,94660.22
2023-05-02T20:54:07.437Z,94657.41
2023-05-02T20:56:34.064Z,94670.38
2023-05-02T20:59:00.658Z,94666.78
2023-05-02T21:01:27.464Z,94677.38
2023-05-02T21:03:54.201Z,94672.59
2023-05-02T21:06:21.597Z,94671.59
2023-05-02T21:08:48.361Z,94679.38
2023-05-02T21:11:15.864Z,94672.56
2023-05-02T21:13:43.182Z,94673.38
2023-05-02T21:16:19.692Z,94665.00
2023-05-02T21:18:47.637Z,94673.78
2023-05-02T21:21:14.588Z,94667.38
2023-05-02T21:23:41.220Z,94677.56
2023-05-02T21:26:07.990Z,94671.78
2023-05-02T21:28:34.612Z,94676.56
2023-05-02T21:31:02.179Z,94670.41
2023-05-02T21:33:28.859Z,94680.56
2023-05-02T21:35:58.680Z,94674.19
2023-05-02T21:38:29.047Z,94680.38
2023-05-02T21:40:55.975Z,94676.97
2023-05-02T21:43:22.581Z,94673.38
2023-05-02T21:45:50.014Z,94674.19
2023-05-02T21:48:17.397Z,94673.00
2023-05-02T21:50:44.637Z,94694.16
2023-05-02T21:53:12.926Z,94685.75
2023-05-02T21:55:41.101Z,94691.56
2023-05-02T21:58:09.730Z,94685.78
2023-05-02T22:00:40.850Z,94678.38
2023-05-02T22:03:11.543Z,94685.16
2023-05-02T22:05:42.194Z,94684.56
2023-05-02T22:08:09.933Z,94694.16
2023-05-02T22:10:42.162Z,94686.16
2023-05-02T22:13:12.442Z,94690.16
2023-05-02T22:15:46.788Z,94681.16
2023-05-02T22:18:14.252Z,94680.16
2023-05-02T22:20:42.201Z,94676.59
2023-05-02T22:23:09.797Z,94681.78
2023-05-02T22:25:39.163Z,94681.78
2023-05-02T22:28:11.615Z,94688.16
2023-05-02T22:30:38.961Z,94688.16
2023-05-02T22:33:06.571Z,94676.97
2023-05-02T22:35:33.420Z,94688.75
2023-05-02T22:38:02.001Z,94691.94
2023-05-02T22:40:30.981Z,94688.34
2023-05-02T22:42:58.153Z,94693.31
2023-05-02T22:45:24.890Z,94688.94
2023-05-02T22:47:52.275Z,94687.34
2023-05-02T22:50:19.940Z,94681.94
2023-05-02T22:52:47.048Z,94679.34
2023-05-02T22:55:13.728Z,94680.97
2023-05-02T22:57:40.654Z,94681.78
2023-05-02T23:00:09.427Z,94685.34
2023-05-02T23:02:36.963Z,94673.59
2023-05-02T23:05:04.552Z,94681.75
2023-05-02T23:07:31.315Z,94688.34
2023-05-02T23:09:58.080Z,94687.56
2023-05-02T23:12:24.797Z,94686.75
2023-05-02T23:14:51.526Z,94686.34
2023-05-02T23:17:18.381Z,94689.34
2023-05-02T23:19:45.229Z,94684.56
2023-05-02T23:22:12.036Z,94692.72
2023-05-02T23:24:38.902Z,94692.53
2023-05-02T23:27:07.729Z,94693.91
2023-05-02T23:29:34.491Z,94685.53
2023-05-02T23:32:01.355Z,94688.53
2023-05-02T23:34:28.481Z,94685.16
2023-05-02T23:36:55.267Z,94680.34
2023-05-02T23:39:22.053Z,94683.34
2023-05-02T23:41:48.835Z,94680.16
2023-05-02T23:44:15.635Z,94678.16
2023-05-02T23:46:42.344Z,94681.72
2023-05-02T23:49:09.145Z,94682.53
2023-05-02T23:51:37.772Z,94677.16
2023-05-02T23:54:04.643Z,94667.16
2023-05-02T23:56:31.350Z,94677.56
2023-05-02T23:58:58.035Z,94664.56
